Time;durP1;ratioP1;P1;durP2;ratioP2;P2;SDS_P1;SDS_P2;PMS_P1;PMS_P2;Temp;Humidity;BMP_temperature;BMP_pressure;BME280_temperature;BME280_humidity;BME280_pressure;Samples;Min_cycle;Max_cycle;Signal;HPM_P1;HPM_P2
2021/12/19 00:00:48;;;;;;;;;;;;;;;5.88;97.14;103674.38;4862122;29;19927;-80
2021/12/19 00:03:48;;;;;;;;;;;;;;;5.86;96.93;103673.41;4862223;29;19923;-80
2021/12/19 00:08:57;;;;;;;;;;;;;;;5.87;96.85;103660.34;4891711;29;19916;-80
2021/12/19 00:11:26;;;;;;;;;;;;;;;5.89;96.96;103665.66;4846772;29;19916;-81
2021/12/19 00:13:52;;;;;;;;;;;;;;;5.87;97.28;103657.69;4875692;29;19930;-81
2021/12/19 00:16:18;;;;;;;;;;;;;;;5.86;97.31;103653.28;4877653;29;20007;-80
2021/12/19 00:18:46;;;;;;;;;;;;;;;5.84;97.58;103649.69;4878786;29;20010;-80
2021/12/19 00:21:13;;;;;;;;;;;;;;;5.85;97.90;103648.84;4877648;29;19916;-81
2021/12/19 00:23:38;;;;;;;;;;;;;;;5.83;97.80;103653.13;4892920;29;19966;-81
2021/12/19 00:26:04;;;;;;;;;;;;;;;5.81;97.61;103660.06;4877178;29;19963;-80
2021/12/19 00:28:29;;;;;;;;;;;;;;;5.80;98.14;103653.91;4861936;29;19920;-80
2021/12/19 00:30:55;;;;;;;;;;;;;;;5.76;98.36;103648.44;4877148;29;20018;-80
2021/12/19 00:33:20;;;;;;;;;;;;;;;5.76;98.37;103645.81;4877362;29;19927;-81
2021/12/19 00:35:46;;;;;;;;;;;;;;;5.75;98.86;103646.66;4877098;29;20054;-81
2021/12/19 00:38:11;;;;;;;;;;;;;;;5.75;98.44;103641.41;4862286;29;20339;-81
2021/12/19 00:40:37;;;;;;;;;;;;;;;5.73;98.12;103648.31;4869414;29;19916;-81
2021/12/19 00:43:06;;;;;;;;;;;;;;;5.70;98.20;103643.81;4862252;29;19920;-80
2021/12/19 00:45:34;;;;;;;;;;;;;;;5.70;98.38;103635.94;4877885;29;19920;-80
2021/12/19 00:48:00;;;;;;;;;;;;;;;5.71;98.35;103639.47;4865784;29;19916;-80
2021/12/19 00:50:26;;;;;;;;;;;;;;;5.69;97.97;103641.16;4890326;29;19912;-80
2021/12/19 00:52:52;;;;;;;;;;;;;;;5.69;97.98;103639.41;4885197;29;20683;-81
2021/12/19 00:55:18;;;;;;;;;;;;;;;5.69;97.67;103636.78;4884233;29;19971;-80
2021/12/19 00:57:44;;;;;;;;;;;;;;;5.69;97.58;103631.53;4877390;29;19920;-80
2021/12/19 01:00:10;;;;;;;;;;;;;;;5.70;97.85;103629.78;4872279;29;19926;-80
2021/12/19 01:02:36;;;;;;;;;;;;;;;5.69;98.13;103631.53;4861851;29;19915;-80
2021/12/19 01:05:02;;;;;;;;;;;;;;;5.70;98.55;103628.03;4846544;29;19916;-80
2021/12/19 01:07:28;;;;;;;;;;;;;;;5.70;98.10;103633.31;4861967;29;19933;-80
2021/12/19 01:09:54;;;;;;;;;;;;;;;5.69;98.29;103634.16;4878529;29;20006;-80
2021/12/19 01:12:19;;;;;;;;;;;;;;;5.68;98.41;103628.81;4846606;29;20002;-80
2021/12/19 01:14:44;;;;;;;;;;;;;;;5.64;98.69;103621.63;4846288;29;20333;-80
2021/12/19 01:17:10;;;;;;;;;;;;;;;5.63;99.01;103618.09;4861185;29;19931;-80
2021/12/19 01:19:36;;;;;;;;;;;;;;;5.63;98.71;103620.72;4861715;29;19934;-80
2021/12/19 01:22:01;;;;;;;;;;;;;;;5.58;99.20;103620.53;4846187;29;19999;-80
2021/12/19 01:24:27;;;;;;;;;;;;;;;5.58;99.34;103617.91;4861752;29;20384;-80
2021/12/19 01:26:52;;;;;;;;;;;;;;;5.58;99.37;103620.53;4877163;29;19916;-80
2021/12/19 01:29:17;;;;;;;;;;;;;;;5.56;99.63;103616.03;4861622;29;20272;-80
2021/12/19 01:31:43;;;;;;;;;;;;;;;5.54;99.12;103607.22;4861286;29;19925;-80
2021/12/19 01:34:12;;;;;;;;;;;;;;;5.56;99.14;103619.59;4877213;29;19965;-80
2021/12/19 01:36:41;;;;;;;;;;;;;;;5.53;99.29;103627.31;4860099;29;19912;-80
2021/12/19 01:39:07;;;;;;;;;;;;;;;5.54;99.63;103613.34;4878558;29;20383;-80
2021/12/19 01:41:32;;;;;;;;;;;;;;;5.56;99.38;103616.03;4861126;29;19924;-80
2021/12/19 01:43:58;;;;;;;;;;;;;;;5.52;99.65;103609.75;4877095;29;19952;-80
2021/12/19 01:46:23;;;;;;;;;;;;;;;5.54;99.58;103607.22;4876951;29;20048;-80
2021/12/19 01:48:51;;;;;;;;;;;;;;;5.53;99.48;103606.28;4876466;29;19916;-80
2021/12/19 01:51:17;;;;;;;;;;;;;;;5.53;99.94;103610.66;4861303;29;19919;-80
2021/12/19 01:53:43;;;;;;;;;;;;;;;5.50;100.00;103603.53;4845857;29;19930;-80
2021/12/19 01:56:08;;;;;;;;;;;;;;;5.50;100.00;103605.28;4861366;29;19916;-80
2021/12/19 01:58:34;;;;;;;;;;;;;;;5.51;100.00;103605.31;4861074;29;20252;-80
2021/12/19 02:01:00;;;;;;;;;;;;;;;5.50;100.00;103600.91;4876767;29;19950;-80
2021/12/19 02:03:26;;;;;;;;;;;;;;;5.47;100.00;103599.88;4876457;29;19931;-80
2021/12/19 02:05:51;;;;;;;;;;;;;;;5.44;100.00;103595.41;4876894;29;20316;-80
2021/12/19 02:08:18;;;;;;;;;;;;;;;5.44;100.00;103599.72;4860356;29;19912;-80
2021/12/19 02:10:44;;;;;;;;;;;;;;;5.46;100.00;103596.34;4876803;29;19948;-80
2021/12/19 02:13:10;;;;;;;;;;;;;;;5.42;100.00;103593.53;4876540;29;19915;-80
2021/12/19 02:15:36;;;;;;;;;;;;;;;5.39;100.00;103595.19;4876183;29;20596;-80
2021/12/19 02:18:08;;;;;;;;;;;;;;;5.36;99.85;103587.16;4861098;29;20006;-80
2021/12/19 02:20:38;;;;;;;;;;;;;;;5.36;100.00;103592.41;4876344;29;20427;-80
2021/12/19 02:23:04;;;;;;;;;;;;;;;5.35;100.00;103582.75;4860926;29;20344;-80
2021/12/19 02:25:30;;;;;;;;;;;;;;;5.32;100.00;103586.97;4877768;29;19954;-80
2021/12/19 02:27:55;;;;;;;;;;;;;;;5.30;100.00;103576.38;4861431;29;19931;-80
2021/12/19 02:30:21;;;;;;;;;;;;;;;5.30;100.00;103588.63;4876414;29;19915;-80
2021/12/19 02:32:46;;;;;;;;;;;;;;;5.30;100.00;103583.38;4891550;29;19920;-80
2021/12/19 02:35:16;;;;;;;;;;;;;;;5.29;100.00;103581.56;4876434;29;19919;-80
2021/12/19 02:48:25;;;;;;;;;;;;;;;5.15;99.92;103575.72;4867052;29;19923;-80
2021/12/19 02:50:53;;;;;;;;;;;;;;;5.14;100.00;103566.03;4876117;29;19916;-80
2021/12/19 02:53:32;;;;;;;;;;;;;;;5.13;99.73;103564.25;4877328;29;19930;-80
2021/12/19 02:55:58;;;;;;;;;;;;;;;5.13;100.00;103567.75;4876106;29;19915;-80
2021/12/19 02:58:24;;;;;;;;;;;;;;;5.12;100.00;103565.09;4860732;29;19916;-80
2021/12/19 03:00:50;;;;;;;;;;;;;;;5.02;99.39;103561.16;4876204;29;20356;-80
2021/12/19 03:03:15;;;;;;;;;;;;;;;5.02;100.00;103560.22;4876125;29;20079;-80
2021/12/19 03:05:42;;;;;;;;;;;;;;;5.01;99.92;103561.97;4875896;29;20361;-80
2021/12/19 03:08:09;;;;;;;;;;;;;;;4.99;99.57;103562.72;4891047;29;20339;-80
2021/12/19 03:18:25;;;;;;;;;;;;;;;4.92;100.00;103545.78;4891112;29;19930;-80
2021/12/19 03:20:51;;;;;;;;;;;;;;;4.89;100.00;103540.41;4880180;29;19919;-80
2021/12/19 03:23:16;;;;;;;;;;;;;;;4.89;100.00;103543.91;4879010;29;19941;-80
2021/12/19 03:25:41;;;;;;;;;;;;;;;4.91;100.00;103541.38;4879052;29;20155;-80
2021/12/19 03:28:08;;;;;;;;;;;;;;;4.92;100.00;103540.53;4860567;29;20359;-79
2021/12/19 03:30:35;;;;;;;;;;;;;;;4.90;100.00;103531.72;4861468;29;19916;-79
2021/12/19 03:33:00;;;;;;;;;;;;;;;4.90;100.00;103535.22;4861465;29;19935;-80
2021/12/19 03:35:27;;;;;;;;;;;;;;;4.88;100.00;103534.25;4844776;29;19912;-80
2021/12/19 03:37:53;;;;;;;;;;;;;;;4.88;100.00;103528.13;4859973;29;19924;-80
2021/12/19 03:40:24;;;;;;;;;;;;;;;4.81;99.87;103524.31;4844705;29;19916;-79
2021/12/19 03:42:51;;;;;;;;;;;;;;;4.79;99.76;103522.44;4875419;29;20352;-80
2021/12/19 03:45:18;;;;;;;;;;;;;;;4.74;99.99;103527.47;4860282;29;19945;-80
2021/12/19 03:47:44;;;;;;;;;;;;;;;4.71;99.94;103520.38;4860123;29;19916;-80
2021/12/19 03:50:11;;;;;;;;;;;;;;;4.70;100.00;103525.56;4894489;29;19918;-80
2021/12/19 03:52:37;;;;;;;;;;;;;;;4.70;99.49;103520.31;4878288;29;19931;-79
2021/12/19 03:55:03;;;;;;;;;;;;;;;4.66;99.48;103521.88;4878748;29;20332;-80
2021/12/19 03:57:28;;;;;;;;;;;;;;;4.68;99.34;103524.59;4863043;29;19967;-80
2021/12/19 03:59:54;;;;;;;;;;;;;;;4.66;99.11;103521.88;4875312;29;19919;-79
2021/12/19 04:02:26;;;;;;;;;;;;;;;4.63;98.93;103526.13;4860810;29;20261;-80
2021/12/19 04:04:52;;;;;;;;;;;;;;;4.57;98.72;103520.56;4859370;29;20352;-80
2021/12/19 04:07:18;;;;;;;;;;;;;;;4.55;98.34;103516.97;4860894;29;19912;-80
2021/12/19 04:09:44;;;;;;;;;;;;;;;4.55;98.47;103511.72;4882175;29;20368;-80
2021/12/19 04:12:09;;;;;;;;;;;;;;;4.54;98.72;103502.97;4879371;29;19922;-80
2021/12/19 04:14:35;;;;;;;;;;;;;;;4.55;98.51;103496.91;4893687;29;20347;-80
2021/12/19 04:17:00;;;;;;;;;;;;;;;4.53;98.74;103491.56;4892749;29;19916;-80
2021/12/19 04:19:26;;;;;;;;;;;;;;;4.55;98.27;103481.16;4859400;29;19924;-80
2021/12/19 04:21:52;;;;;;;;;;;;;;;4.55;98.81;103488.09;4874621;29;19916;-80
2021/12/19 04:24:17;;;;;;;;;;;;;;;4.53;99.14;103480.19;4874709;29;19920;-80
2021/12/19 04:26:43;;;;;;;;;;;;;;;4.53;98.98;103477.56;4859100;29;20360;-80
2021/12/19 04:29:08;;;;;;;;;;;;;;;4.53;99.04;103478.44;4874575;29;19936;-80
2021/12/19 04:31:34;;;;;;;;;;;;;;;4.53;99.27;103470.56;4859918;29;19972;-80
2021/12/19 04:33:59;;;;;;;;;;;;;;;4.54;99.13;103466.22;4874617;29;20011;-80
2021/12/19 04:36:31;;;;;;;;;;;;;;;4.55;99.08;103465.41;4860326;29;20010;-79
2021/12/19 04:59:56;;;;;;;;;;;;;;;4.46;100.00;103452.75;4839529;29;20400;-80
2021/12/19 05:05:32;;;;;;;;;;;;;;;4.47;100.00;103444.03;4874653;29;19916;-79
2021/12/19 05:16:09;;;;;;;;;;;;;;;4.50;100.00;103438.97;4873997;29;19935;-79
2021/12/19 05:18:38;;;;;;;;;;;;;;;4.51;100.00;103437.22;4858530;29;19916;-80
2021/12/19 05:21:14;;;;;;;;;;;;;;;4.51;100.00;103429.34;4859476;29;20352;-79
2021/12/19 05:26:10;;;;;;;;;;;;;;;4.49;100.00;103442.38;4873695;29;20388;-79
2021/12/19 05:28:35;;;;;;;;;;;;;;;4.47;100.00;103441.41;4873340;29;20032;-80
2021/12/19 05:31:01;;;;;;;;;;;;;;;4.48;100.00;103437.97;4858188;29;19920;-80
2021/12/19 05:33:26;;;;;;;;;;;;;;;4.47;100.00;103430.91;4857922;29;20011;-79
2021/12/19 05:46:54;;;;;;;;;;;;;;;4.53;100.00;103430.31;4823180;29;19920;-80
2021/12/19 05:49:19;;;;;;;;;;;;;;;4.51;100.00;103427.63;4838449;29;19935;-80
2021/12/19 05:51:46;;;;;;;;;;;;;;;4.51;100.00;103424.09;4861153;29;20019;-80
2021/12/19 05:54:11;;;;;;;;;;;;;;;4.50;100.00;103423.22;4876076;29;20029;-79
2021/12/19 05:56:37;;;;;;;;;;;;;;;4.51;100.00;103416.22;4877864;29;19991;-79
2021/12/19 05:59:02;;;;;;;;;;;;;;;4.51;100.00;103406.63;4876246;29;20010;-80
2021/12/19 06:01:28;;;;;;;;;;;;;;;4.52;100.00;103402.25;4877479;29;19923;-80
2021/12/19 06:03:53;;;;;;;;;;;;;;;4.55;100.00;103404.13;4876131;29;20017;-79
2021/12/19 06:06:19;;;;;;;;;;;;;;;4.53;100.00;103412.84;4876459;29;20241;-79
2021/12/19 06:08:45;;;;;;;;;;;;;;;4.56;100.00;103404.22;4876078;29;20015;-80
2021/12/19 06:11:10;;;;;;;;;;;;;;;4.56;100.00;103413.81;4876070;29;19923;-79
2021/12/19 06:13:37;;;;;;;;;;;;;;;4.57;100.00;103408.63;4877231;29;19912;-79
2021/12/19 06:16:03;;;;;;;;;;;;;;;4.59;100.00;103404.34;4875928;29;19935;-79
2021/12/19 06:18:29;;;;;;;;;;;;;;;4.60;100.00;103407.84;4891468;29;19918;-79
2021/12/19 06:20:54;;;;;;;;;;;;;;;4.58;100.00;103404.28;4860433;29;20303;-80
2021/12/19 06:23:19;;;;;;;;;;;;;;;4.61;100.00;103410.56;4875870;29;19977;-79
2021/12/19 06:25:48;;;;;;;;;;;;;;;4.62;100.00;103412.34;4860316;29;19930;-79
2021/12/19 06:28:14;;;;;;;;;;;;;;;4.65;100.00;103412.50;4857205;29;19943;-79
2021/12/19 06:30:40;;;;;;;;;;;;;;;4.64;100.00;103402.81;4872551;29;20000;-79
2021/12/19 06:33:05;;;;;;;;;;;;;;;4.66;100.00;103409.03;4857106;29;20005;-79
2021/12/19 06:35:31;;;;;;;;;;;;;;;4.67;100.00;103407.28;4857417;29;20284;-80
2021/12/19 06:37:56;;;;;;;;;;;;;;;4.67;100.00;103397.72;4857220;29;19912;-79
2021/12/19 06:40:22;;;;;;;;;;;;;;;4.67;100.00;103400.34;4857347;29;20385;-79
2021/12/19 06:42:48;;;;;;;;;;;;;;;4.67;100.00;103395.09;4857280;29;19916;-79
2021/12/19 06:45:13;;;;;;;;;;;;;;;4.68;100.00;103390.72;4858684;29;19923;-79
2021/12/19 06:47:39;;;;;;;;;;;;;;;4.69;100.00;103384.63;4858260;29;19919;-79
2021/12/19 06:50:05;;;;;;;;;;;;;;;4.71;100.00;103377.72;4890889;29;19924;-79
2021/12/19 06:52:30;;;;;;;;;;;;;;;4.71;100.00;103373.38;4890982;29;20019;-79
2021/12/19 06:54:56;;;;;;;;;;;;;;;4.72;100.00;103374.25;4862186;29;20142;-79
2021/12/19 06:57:21;;;;;;;;;;;;;;;4.74;100.00;103364.72;4879322;29;19987;-79
2021/12/19 06:59:50;;;;;;;;;;;;;;;4.76;100.00;103357.81;4863702;29;19930;-79
2021/12/19 07:02:16;;;;;;;;;;;;;;;4.77;100.00;103353.47;4879383;29;20418;-79
2021/12/19 07:04:45;;;;;;;;;;;;;;;4.78;100.00;103350.03;4880461;29;19916;-79
2021/12/19 07:07:10;;;;;;;;;;;;;;;4.82;100.00;103357.19;4880914;29;20003;-79
2021/12/19 07:09:35;;;;;;;;;;;;;;;4.78;100.00;103358.78;4848365;29;20071;-79
2021/12/19 07:12:02;;;;;;;;;;;;;;;4.80;100.00;103366.72;4863831;29;19935;-79
2021/12/19 07:14:28;;;;;;;;;;;;;;;4.77;100.00;103359.59;4894966;29;19955;-79
2021/12/19 07:16:53;;;;;;;;;;;;;;;4.78;100.00;103361.41;4894538;29;20014;-79
2021/12/19 07:19:18;;;;;;;;;;;;;;;4.81;100.00;103360.66;4878949;29;19916;-79
2021/12/19 07:21:44;;;;;;;;;;;;;;;4.82;100.00;103359.78;4878881;29;19915;-79
2021/12/19 07:24:09;;;;;;;;;;;;;;;4.82;100.00;103362.41;4880471;29;19916;-79
2021/12/19 07:26:35;;;;;;;;;;;;;;;4.85;100.00;103360.84;4878811;29;20313;-79
2021/12/19 07:29:00;;;;;;;;;;;;;;;4.87;100.00;103361.81;4880281;29;19955;-79
2021/12/19 07:31:29;;;;;;;;;;;;;;;4.90;100.00;103355.78;4880388;29;20253;-79
2021/12/19 07:33:55;;;;;;;;;;;;;;;4.91;100.00;103350.56;4894441;29;19973;-78
2021/12/19 07:36:24;;;;;;;;;;;;;;;4.94;100.00;103348.06;4878805;29;19954;-79
2021/12/19 07:39:03;;;;;;;;;;;;;;;4.97;100.00;103355.22;4863962;29;19923;-79
2021/12/19 07:41:29;;;;;;;;;;;;;;;5.01;100.00;103346.59;4879878;29;20084;-79
2021/12/19 07:43:54;;;;;;;;;;;;;;;5.03;100.00;103346.69;4880207;29;20078;-79
2021/12/19 07:46:20;;;;;;;;;;;;;;;5.05;100.00;103343.28;4863029;29;19954;-79
2021/12/19 07:48:45;;;;;;;;;;;;;;;5.06;100.00;103350.31;4844138;29;19920;-79
2021/12/19 07:51:11;;;;;;;;;;;;;;;5.07;100.00;103341.63;4844676;29;20322;-79
2021/12/19 07:53:36;;;;;;;;;;;;;;;5.10;100.00;103343.47;4844428;29;20289;-79
2021/12/19 07:56:02;;;;;;;;;;;;;;;5.13;100.00;103341.84;4844917;29;19920;-79
2021/12/19 07:58:28;;;;;;;;;;;;;;;5.16;100.00;103341.09;4875205;29;19920;-79
2021/12/19 08:00:53;;;;;;;;;;;;;;;5.17;100.00;103333.28;4859968;29;20333;-79
2021/12/19 08:03:18;;;;;;;;;;;;;;;5.18;100.00;103327.19;4875142;29;20044;-79
2021/12/19 08:05:44;;;;;;;;;;;;;;;5.21;100.00;103328.13;4860110;29;19941;-79
2021/12/19 08:08:11;;;;;;;;;;;;;;;5.24;100.00;103326.56;4859601;29;19916;-79
2021/12/19 08:13:04;;;;;;;;;;;;;;;5.27;100.00;103326.66;4875230;29;19947;-79
2021/12/19 08:15:29;;;;;;;;;;;;;;;5.29;100.00;103334.59;4844215;29;19912;-79
2021/12/19 08:17:55;;;;;;;;;;;;;;;5.29;100.00;103327.63;4859262;29;20658;-79
2021/12/19 08:20:20;;;;;;;;;;;;;;;5.31;100.00;103322.41;4859525;29;20237;-79
2021/12/19 08:22:50;;;;;;;;;;;;;;;5.32;100.00;103318.97;4843769;29;20031;-79
2021/12/19 08:25:16;;;;;;;;;;;;;;;5.33;100.00;103316.38;4875295;29;20011;-79
2021/12/19 08:27:41;;;;;;;;;;;;;;;5.36;100.00;103327.00;4859575;29;20327;-79
2021/12/19 08:30:09;;;;;;;;;;;;;;;5.38;100.00;103319.19;4859855;29;20264;-79
2021/12/19 08:32:35;;;;;;;;;;;;;;;5.39;100.00;103321.91;4859182;29;20027;-79
2021/12/19 08:35:00;;;;;;;;;;;;;;;5.41;100.00;103318.41;4859728;29;20365;-79
2021/12/19 08:37:26;;;;;;;;;;;;;;;5.42;100.00;103318.50;4859828;29;19965;-79
2021/12/19 08:39:52;;;;;;;;;;;;;;;5.43;100.00;103324.63;4875228;29;20124;-79
2021/12/19 08:42:18;;;;;;;;;;;;;;;5.45;100.00;103323.84;4859332;29;20019;-79
2021/12/19 08:44:43;;;;;;;;;;;;;;;5.47;100.00;103323.94;4859462;29;19923;-79
2021/12/19 08:47:09;;;;;;;;;;;;;;;5.47;100.00;103324.81;4859403;29;20271;-79
2021/12/19 08:49:35;;;;;;;;;;;;;;;5.50;100.00;103318.78;4873243;29;19951;-79
2021/12/19 08:52:01;;;;;;;;;;;;;;;5.49;100.00;103320.53;4877786;29;19958;-79
2021/12/19 08:54:27;;;;;;;;;;;;;;;5.49;100.00;103314.34;4893098;29;20391;-79
2021/12/19 08:56:52;;;;;;;;;;;;;;;5.50;100.00;103313.53;4893160;29;19915;-79
2021/12/19 08:59:18;;;;;;;;;;;;;;;5.53;100.00;103318.91;4846462;29;19919;-80
2021/12/19 09:01:43;;;;;;;;;;;;;;;5.52;100.00;103307.50;4877268;29;20018;-79
2021/12/19 09:04:08;;;;;;;;;;;;;;;5.54;100.00;103304.94;4861642;29;19927;-79
2021/12/19 09:06:34;;;;;;;;;;;;;;;5.54;100.00;103305.81;4876993;29;20375;-79
2021/12/19 09:09:01;;;;;;;;;;;;;;;5.54;100.00;103303.19;4861578;29;19920;-79
2021/12/19 09:11:27;;;;;;;;;;;;;;;5.55;100.00;103299.72;4876994;29;20010;-79
2021/12/19 09:13:52;;;;;;;;;;;;;;;5.55;100.00;103298.84;4877158;29;20006;-79
2021/12/19 09:16:18;;;;;;;;;;;;;;;5.56;100.00;103303.22;4876768;29;19911;-79
2021/12/19 09:18:43;;;;;;;;;;;;;;;5.57;100.00;103305.94;4863142;29;19967;-79
2021/12/19 09:21:08;;;;;;;;;;;;;;;5.57;100.00;103297.16;4858570;29;19992;-79
2021/12/19 09:23:34;;;;;;;;;;;;;;;5.59;100.00;103290.22;4874214;29;19967;-79
2021/12/19 09:26:00;;;;;;;;;;;;;;;5.59;100.00;103296.38;4859585;29;19912;-80
2021/12/19 09:30:44;;;;;;;9.82;5.75;;;;;;;5.59;100.00;103303.38;5068084;27;20916;-80
2021/12/19 09:33:10;;;;;;;16.25;8.77;;;;;;;5.57;100.00;103298.06;5068399;28;20041;-80
2021/12/19 09:35:36;;;;;;;14.73;8.05;;;;;;;5.53;100.00;103293.50;5066498;28;20025;-80
2021/12/19 09:38:05;;;;;;;16.08;9.02;;;;;;;5.61;100.00;103291.16;5049623;28;20132;-81
2021/12/19 09:40:35;;;;;;;14.90;7.78;;;;;;;5.57;100.00;103287.53;5068135;28;20487;-80
2021/12/19 09:43:04;;;;;;;17.10;8.65;;;;;;;5.62;100.00;103294.72;5066291;28;20227;-80
2021/12/19 09:45:32;;;;;;;16.15;8.07;;;;;;;5.60;100.00;103284.13;5066838;28;20063;-80
2021/12/19 09:47:58;;;;;;;16.20;8.35;;;;;;;5.64;100.00;103290.38;5067571;28;20025;-80
2021/12/19 09:50:24;;;;;;;16.08;8.93;;;;;;;5.64;100.00;103285.13;5050116;28;20036;-80
2021/12/19 09:52:50;;;;;;;15.80;7.60;;;;;;;5.68;100.00;103289.66;5067530;28;20036;-80
2021/12/19 09:55:19;;;;;;;12.77;6.95;;;;;;;5.70;100.00;103293.25;5066327;28;20499;-80
2021/12/19 09:57:45;;;;;;;13.50;7.65;;;;;;;5.74;100.00;103303.94;5068009;28;20029;-80
2021/12/19 10:00:12;;;;;;;14.57;6.88;;;;;;;5.78;100.00;103302.31;5067595;28;20086;-81
2021/12/19 10:02:40;;;;;;;13.73;7.60;;;;;;;5.77;100.00;103290.03;5066525;28;20376;-80
2021/12/19 10:05:25;;;;;;;16.25;7.80;;;;;;;5.84;100.00;103297.31;5049903;28;20040;-81
2021/12/19 10:08:01;;;;;;;13.60;8.32;;;;;;;5.86;100.00;103300.88;5049395;28;20051;-80
2021/12/19 10:10:55;;;;;;;13.75;7.75;;;;;;;5.85;100.00;103285.94;5065493;28;20417;-80
2021/12/19 10:13:32;;;;;;;15.25;8.63;;;;;;;5.84;100.00;103281.53;5065948;28;20084;-80
2021/12/19 10:15:58;;;;;;;14.77;9.43;;;;;;;5.86;100.00;103281.56;5046435;28;20053;-81
2021/12/19 10:18:24;;;;;;;13.35;8.52;;;;;;;5.87;100.00;103276.38;5046262;28;20063;-81
2021/12/19 10:20:52;;;;;;;17.50;10.05;;;;;;;5.89;100.00;103279.06;5047507;28;20140;-80
2021/12/19 10:23:22;;;;;;;13.98;9.05;;;;;;;5.91;100.00;103286.16;5046112;28;20067;-80
2021/12/19 10:26:14;;;;;;;15.20;10.43;;;;;;;5.95;100.00;103284.56;5045715;28;20408;-81
2021/12/19 10:28:53;;;;;;;15.02;9.60;;;;;;;5.93;100.00;103276.56;5027910;28;20612;-80
2021/12/19 10:31:20;;;;;;;16.83;9.85;;;;;;;5.96;100.00;103273.19;5047018;28;20435;-80
2021/12/19 10:33:47;;;;;;;17.13;9.20;;;;;;;5.95;100.00;103260.91;4996390;28;20120;-80
2021/12/19 10:36:14;;;;;;;13.80;9.23;;;;;;;6.00;100.00;103262.84;5045001;28;20111;-80
2021/12/19 10:38:45;;;;;;;16.85;8.85;;;;;;;5.98;100.00;103251.41;5045758;28;20017;-80
2021/12/19 10:41:17;;;;;;;13.38;8.13;;;;;;;6.02;100.00;103260.28;5036723;28;20420;-80
2021/12/19 10:43:56;;;;;;;14.45;9.23;;;;;;;6.02;100.00;103258.53;5033682;28;20055;-80
2021/12/19 10:46:29;;;;;;;10.68;7.13;;;;;;;6.01;100.00;103256.75;5032101;28;20055;-81
2021/12/19 10:48:56;;;;;;;11.95;7.10;;;;;;;6.06;100.00;103256.00;5038536;28;20088;-80
2021/12/19 10:51:21;;;;;;;10.82;6.82;;;;;;;6.09;100.00;103250.88;5048583;28;20018;-80
2021/12/19 10:53:55;;;;;;;12.20;6.75;;;;;;;6.13;100.00;103251.06;5031951;28;20072;-80
2021/12/19 10:56:31;;;;;;;10.18;6.20;;;;;;;6.12;100.00;103238.72;5032136;28;20220;-80
2021/12/19 10:59:01;;;;;;;8.45;5.25;;;;;;;6.12;100.00;103238.72;5048412;28;20033;-81
2021/12/19 11:01:30;;;;;;;10.00;6.90;;;;;;;6.14;100.00;103244.94;5048654;28;20116;-80
2021/12/19 11:03:59;;;;;;;6.32;4.55;;;;;;;6.18;100.00;103236.31;5048975;28;20132;-81
2021/12/19 11:06:53;;;;;;;6.72;4.57;;;;;;;6.20;100.00;103238.97;5048442;28;20543;-81
2021/12/19 11:09:20;;;;;;;6.30;4.35;;;;;;;6.19;100.00;103229.31;5031512;28;20054;-81
2021/12/19 11:11:49;;;;;;;5.60;3.30;;;;;;;6.22;100.00;103222.41;5048291;28;20517;-81
2021/12/19 11:14:19;;;;;;;5.70;3.58;;;;;;;6.23;100.00;103218.94;5048260;28;20063;-81
2021/12/19 11:16:45;;;;;;;4.18;2.30;;;;;;;6.21;100.00;103215.38;5031404;28;20045;-81
2021/12/19 11:19:12;;;;;;;3.85;2.72;;;;;;;6.18;100.00;103207.38;5032963;28;20033;-81
2021/12/19 11:21:38;;;;;;;3.47;2.65;;;;;;;6.16;100.00;103200.28;5047893;28;20136;-81
2021/12/19 11:24:14;;;;;;;6.13;2.90;;;;;;;6.16;100.00;103193.28;5048204;28;20021;-81
2021/12/19 11:26:42;;;;;;;3.33;2.05;;;;;;;6.16;100.00;103188.00;5048703;28;20036;-81
2021/12/19 11:29:09;;;;;;;3.45;2.28;;;;;;;6.19;100.00;103195.09;5033008;28;20472;-81
2021/12/19 11:31:38;;;;;;;3.88;2.13;;;;;;;6.18;100.00;103182.78;5016405;28;20044;-82
2021/12/19 11:34:03;;;;;;;2.47;1.90;;;;;;;6.14;99.19;103175.63;5029146;28;20057;-81
2021/12/19 11:36:38;;;;;;;3.17;2.15;;;;;;;6.12;99.74;103178.22;5046221;28;20085;-81
2021/12/19 11:39:06;;;;;;;4.55;1.92;;;;;;;6.11;100.00;103175.50;5045720;28;20056;-81
2021/12/19 11:41:33;;;;;;;2.75;1.73;;;;;;;6.14;100.00;103167.75;5029147;28;20438;-81
2021/12/19 11:44:05;;;;;;;3.33;2.30;;;;;;;6.11;100.00;103163.28;5030294;28;20029;-83
2021/12/19 11:46:51;;;;;;;5.07;2.85;;;;;;;6.18;100.00;103164.34;5047763;28;20093;-82
2021/12/19 11:49:25;;;;;;;4.35;2.60;;;;;;;6.19;100.00;103161.78;5044071;28;20029;-81
2021/12/19 11:52:24;;;;;;;4.50;2.85;;;;;;;6.20;99.67;103167.94;5028570;28;20029;-81
2021/12/19 11:55:14;;;;;;;5.32;2.63;;;;;;;6.21;100.00;103165.38;5029150;28;20064;-81
2021/12/19 11:57:41;;;;;;;5.13;2.85;;;;;;;6.20;100.00;103160.03;5044785;28;20043;-81
2021/12/19 12:00:26;;;;;;;4.30;3.40;;;;;;;6.24;99.92;103167.22;5045241;28;20098;-81
2021/12/19 12:03:14;;;;;;;7.05;3.80;;;;;;;6.25;100.00;103161.97;5044124;28;20028;-81
2021/12/19 12:05:44;;;;;;;9.68;5.30;;;;;;;6.22;100.00;103154.00;5043750;28;20036;-81
2021/12/19 12:08:17;;;;;;;10.15;5.57;;;;;;;6.30;100.00;103158.63;5028276;28;20049;-81
2021/12/19 12:10:53;;;;;;;6.03;3.92;;;;;;;6.28;100.00;103150.69;5044025;28;20132;-81
2021/12/19 12:13:38;;;;;;;10.13;3.72;;;;;;;6.32;100.00;103149.03;5028579;28;20040;-81
2021/12/19 12:16:13;;;;;;;5.88;3.55;;;;;;;6.32;99.77;103149.03;5044911;28;20047;-81
2021/12/19 12:18:42;;;;;;;7.25;4.10;;;;;;;6.25;99.69;103133.03;5044677;28;20027;-81
2021/12/19 12:24:00;;;;;;;8.38;3.90;;;;;;;6.30;99.41;103135.81;5044972;28;20033;-81
2021/12/19 12:26:31;;;;;;;8.73;4.70;;;;;;;6.31;99.50;103128.84;5046450;28;20028;-81
2021/12/19 12:28:57;;;;;;;7.65;4.47;;;;;;;6.29;99.25;103126.16;5046475;28;20544;-81
2021/12/19 12:31:27;;;;;;;5.45;3.88;;;;;;;6.28;99.05;103133.97;5046983;28;20115;-81
2021/12/19 12:33:54;;;;;;;7.53;4.28;;;;;;;6.29;98.86;103122.63;5027861;28;20519;-81
2021/12/19 12:36:20;;;;;;;9.23;5.38;;;;;;;6.27;98.00;103121.69;5046628;28;20364;-81
2021/12/19 12:38:49;;;;;;;10.30;4.55;;;;;;;6.24;98.30;103097.06;5044787;28;20434;-81
2021/12/19 12:41:29;;;;;;;8.20;4.50;;;;;;;6.28;98.07;103112.94;5028072;28;20037;-81
2021/12/19 12:44:02;;;;;;;10.30;4.30;;;;;;;6.31;97.75;103105.16;5045952;28;20095;-81
2021/12/19 12:46:29;;;;;;;9.98;4.30;;;;;;;6.31;97.75;103115.69;5029333;28;20570;-81
2021/12/19 12:49:01;;;;;;;9.02;4.60;;;;;;;6.31;96.93;103107.78;5029187;28;20139;-81
2021/12/19 12:52:04;;;;;;;10.25;4.68;;;;;;;6.33;97.08;103108.72;5045213;28;20037;-81
2021/12/19 12:54:36;;;;;;;12.13;4.82;;;;;;;6.30;96.15;103109.50;5010433;28;20068;-81
2021/12/19 12:57:10;;;;;;;9.93;5.00;;;;;;;6.29;96.34;103102.47;5045422;28;20045;-81
2021/12/19 12:59:39;;;;;;;8.98;4.50;;;;;;;6.24;96.05;103097.06;5029087;28;20541;-81
2021/12/19 13:02:14;;;;;;;9.40;4.70;;;;;;;6.29;97.09;103097.22;5044250;28;20027;-81
2021/12/19 13:04:49;;;;;;;11.90;4.88;;;;;;;6.27;97.06;103087.47;5043082;28;20025;-82
2021/12/19 13:07:19;;;;;;;9.88;5.38;;;;;;;6.28;97.03;103087.53;5043646;28;20044;-82
2021/12/19 13:09:46;;;;;;;11.67;5.83;;;;;;;6.30;96.59;103077.94;5042489;28;20544;-82
2021/12/19 13:12:20;;;;;;;8.82;4.78;;;;;;;6.29;96.83;103076.16;5042110;28;20069;-81
2021/12/19 13:14:50;;;;;;;12.90;4.75;;;;;;;6.33;97.34;103077.13;5042029;28;20365;-81
2021/12/19 13:17:23;;;;;;;13.70;4.85;;;;;;;6.24;96.32;103078.63;5043497;28;20058;-82
2021/12/19 13:20:03;;;;;;;10.25;5.43;;;;;;;6.24;96.96;103070.75;5043011;28;20040;-82
2021/12/19 13:22:31;;;;;;;11.38;5.28;;;;;;;6.30;97.60;103082.31;5033118;28;20037;-82
2021/12/19 13:25:01;;;;;;;12.43;5.50;;;;;;;6.27;97.04;103076.94;5029677;28;20025;-82
2021/12/19 13:27:30;;;;;;;11.10;4.33;;;;;;;6.30;96.89;103074.41;5033253;28;20049;-82
2021/12/19 13:30:11;;;;;;;13.35;5.75;;;;;;;6.27;97.10;103072.56;5049483;28;20057;-81
2021/12/19 13:32:41;;;;;;;14.00;6.97;;;;;;;6.28;97.02;103065.56;5050507;28;20040;-81